sensor_id;sensor_type;location;lat;lon;timestamp;temperature;humidity
13928;DHT22;7036;50.834;4.718;2024-02-15T00:02:16;18.50;62.90
13928;DHT22;7036;50.834;4.718;2024-02-15T00:04:43;18.40;63.00
13928;DHT22;7036;50.834;4.718;2024-02-15T00:07:11;18.50;63.00
13928;DHT22;7036;50.834;4.718;2024-02-15T00:09:39;18.40;63.00
13928;DHT22;7036;50.834;4.718;2024-02-15T00:12:07;18.40;63.00
13928;DHT22;7036;50.834;4.718;2024-02-15T00:14:36;18.40;63.00
13928;DHT22;7036;50.834;4.718;2024-02-15T00:17:04;18.40;62.90
13928;DHT22;7036;50.834;4.718;2024-02-15T00:19:32;18.40;63.40
13928;DHT22;7036;50.834;4.718;2024-02-15T00:21:59;18.40;62.80
13928;DHT22;7036;50.834;4.718;2024-02-15T00:24:26;18.40;62.80
13928;DHT22;7036;50.834;4.718;2024-02-15T00:26:54;18.40;62.70
13928;DHT22;7036;50.834;4.718;2024-02-15T00:29:22;18.40;63.10
13928;DHT22;7036;50.834;4.718;2024-02-15T00:31:50;18.40;63.00
13928;DHT22;7036;50.834;4.718;2024-02-15T00:34:18;18.40;63.00
13928;DHT22;7036;50.834;4.718;2024-02-15T00:36:45;18.40;62.80
13928;DHT22;7036;50.834;4.718;2024-02-15T00:39:13;18.40;63.00
13928;DHT22;7036;50.834;4.718;2024-02-15T00:41:41;18.40;63.10
13928;DHT22;7036;50.834;4.718;2024-02-15T00:44:09;18.40;63.00
13928;DHT22;7036;50.834;4.718;2024-02-15T00:46:40;18.40;62.90
13928;DHT22;7036;50.834;4.718;2024-02-15T00:49:06;18.40;62.90
13928;DHT22;7036;50.834;4.718;2024-02-15T00:51:35;18.30;63.70
13928;DHT22;7036;50.834;4.718;2024-02-15T00:54:04;18.40;63.10
13928;DHT22;7036;50.834;4.718;2024-02-15T00:56:31;18.30;63.00
13928;DHT22;7036;50.834;4.718;2024-02-15T00:58:59;18.30;63.10
13928;DHT22;7036;50.834;4.718;2024-02-15T01:01:27;18.40;63.10
13928;DHT22;7036;50.834;4.718;2024-02-15T01:03:54;18.40;62.90
13928;DHT22;7036;50.834;4.718;2024-02-15T01:06:22;18.40;63.10
13928;DHT22;7036;50.834;4.718;2024-02-15T01:08:50;18.30;63.10
13928;DHT22;7036;50.834;4.718;2024-02-15T01:11:18;18.30;63.10
13928;DHT22;7036;50.834;4.718;2024-02-15T01:13:46;18.30;63.00
13928;DHT22;7036;50.834;4.718;2024-02-15T01:16:14;18.30;63.00
13928;DHT22;7036;50.834;4.718;2024-02-15T01:18:42;18.30;63.10
13928;DHT22;7036;50.834;4.718;2024-02-15T01:21:09;18.30;62.90
13928;DHT22;7036;50.834;4.718;2024-02-15T01:23:38;18.30;63.10
13928;DHT22;7036;50.834;4.718;2024-02-15T01:26:05;18.30;63.00
13928;DHT22;7036;50.834;4.718;2024-02-15T01:28:33;18.30;63.10
13928;DHT22;7036;50.834;4.718;2024-02-15T01:31:02;18.30;63.10
13928;DHT22;7036;50.834;4.718;2024-02-15T01:33:28;18.30;63.00
13928;DHT22;7036;50.834;4.718;2024-02-15T01:35:56;18.30;63.10
13928;DHT22;7036;50.834;4.718;2024-02-15T01:38:24;18.30;63.10
13928;DHT22;7036;50.834;4.718;2024-02-15T01:40:51;18.30;63.00
13928;DHT22;7036;50.834;4.718;2024-02-15T01:43:19;18.30;63.20
13928;DHT22;7036;50.834;4.718;2024-02-15T01:45:47;18.30;63.20
13928;DHT22;7036;50.834;4.718;2024-02-15T01:48:15;18.30;63.10
13928;DHT22;7036;50.834;4.718;2024-02-15T01:50:43;18.30;63.10
13928;DHT22;7036;50.834;4.718;2024-02-15T01:53:11;18.30;63.10
13928;DHT22;7036;50.834;4.718;2024-02-15T01:55:39;18.30;63.20
13928;DHT22;7036;50.834;4.718;2024-02-15T01:58:07;18.30;63.50
13928;DHT22;7036;50.834;4.718;2024-02-15T02:00:34;18.20;62.90
13928;DHT22;7036;50.834;4.718;2024-02-15T02:03:02;18.20;63.10
13928;DHT22;7036;50.834;4.718;2024-02-15T02:05:30;18.20;63.20
13928;DHT22;7036;50.834;4.718;2024-02-15T02:07:58;18.20;63.20
13928;DHT22;7036;50.834;4.718;2024-02-15T02:10:26;18.20;63.20
13928;DHT22;7036;50.834;4.718;2024-02-15T02:12:54;18.20;63.10
13928;DHT22;7036;50.834;4.718;2024-02-15T02:15:21;18.20;63.00
13928;DHT22;7036;50.834;4.718;2024-02-15T02:17:49;18.20;63.20
13928;DHT22;7036;50.834;4.718;2024-02-15T02:20:17;18.20;63.20
13928;DHT22;7036;50.834;4.718;2024-02-15T02:22:46;18.20;62.40
13928;DHT22;7036;50.834;4.718;2024-02-15T02:25:12;18.20;63.10
13928;DHT22;7036;50.834;4.718;2024-02-15T02:27:40;18.20;63.10
13928;DHT22;7036;50.834;4.718;2024-02-15T02:30:15;18.20;63.20
13928;DHT22;7036;50.834;4.718;2024-02-15T02:32:46;18.20;63.10
13928;DHT22;7036;50.834;4.718;2024-02-15T02:35:12;18.20;63.10
13928;DHT22;7036;50.834;4.718;2024-02-15T02:37:39;18.20;63.20
13928;DHT22;7036;50.834;4.718;2024-02-15T02:40:08;18.20;62.60
13928;DHT22;7036;50.834;4.718;2024-02-15T02:45:14;18.20;63.30
13928;DHT22;7036;50.834;4.718;2024-02-15T02:47:41;18.20;63.20
13928;DHT22;7036;50.834;4.718;2024-02-15T02:50:08;18.20;63.00
13928;DHT22;7036;50.834;4.718;2024-02-15T02:52:36;18.20;63.20
13928;DHT22;7036;50.834;4.718;2024-02-15T02:55:04;18.20;63.20
13928;DHT22;7036;50.834;4.718;2024-02-15T02:57:32;18.20;63.20
13928;DHT22;7036;50.834;4.718;2024-02-15T03:00:00;18.20;63.20
13928;DHT22;7036;50.834;4.718;2024-02-15T03:02:28;18.20;63.20
13928;DHT22;7036;50.834;4.718;2024-02-15T03:04:55;18.10;63.00
13928;DHT22;7036;50.834;4.718;2024-02-15T03:07:23;18.20;63.10
13928;DHT22;7036;50.834;4.718;2024-02-15T03:09:51;18.20;63.20
13928;DHT22;7036;50.834;4.718;2024-02-15T03:12:18;18.20;63.00
13928;DHT22;7036;50.834;4.718;2024-02-15T03:14:46;18.10;63.20
13928;DHT22;7036;50.834;4.718;2024-02-15T03:17:14;18.10;63.10
13928;DHT22;7036;50.834;4.718;2024-02-15T03:19:42;18.10;63.20
13928;DHT22;7036;50.834;4.718;2024-02-15T03:22:10;18.10;63.10
13928;DHT22;7036;50.834;4.718;2024-02-15T03:24:37;18.10;63.00
13928;DHT22;7036;50.834;4.718;2024-02-15T03:27:04;18.10;63.00
13928;DHT22;7036;50.834;4.718;2024-02-15T03:29:31;18.10;63.00
13928;DHT22;7036;50.834;4.718;2024-02-15T03:31:59;18.10;63.10
13928;DHT22;7036;50.834;4.718;2024-02-15T03:34:27;18.10;63.20
13928;DHT22;7036;50.834;4.718;2024-02-15T03:36:55;18.10;63.20
13928;DHT22;7036;50.834;4.718;2024-02-15T03:39:23;18.10;63.20
13928;DHT22;7036;50.834;4.718;2024-02-15T03:41:51;18.10;63.20
13928;DHT22;7036;50.834;4.718;2024-02-15T03:44:19;18.10;63.20
13928;DHT22;7036;50.834;4.718;2024-02-15T03:46:47;18.10;63.10
13928;DHT22;7036;50.834;4.718;2024-02-15T03:49:15;18.10;62.40
13928;DHT22;7036;50.834;4.718;2024-02-15T03:51:42;18.10;63.00
13928;DHT22;7036;50.834;4.718;2024-02-15T03:54:13;18.10;63.20
13928;DHT22;7036;50.834;4.718;2024-02-15T03:56:49;18.10;63.00
13928;DHT22;7036;50.834;4.718;2024-02-15T03:59:15;18.10;63.10
13928;DHT22;7036;50.834;4.718;2024-02-15T04:01:43;18.10;63.20
13928;DHT22;7036;50.834;4.718;2024-02-15T04:04:11;18.10;63.10
13928;DHT22;7036;50.834;4.718;2024-02-15T04:06:39;18.10;63.20
13928;DHT22;7036;50.834;4.718;2024-02-15T04:09:07;18.10;63.20
13928;DHT22;7036;50.834;4.718;2024-02-15T04:11:35;18.10;63.30
13928;DHT22;7036;50.834;4.718;2024-02-15T04:14:03;18.10;63.10
13928;DHT22;7036;50.834;4.718;2024-02-15T04:16:31;18.10;63.30
13928;DHT22;7036;50.834;4.718;2024-02-15T04:18:59;18.10;63.20
13928;DHT22;7036;50.834;4.718;2024-02-15T04:21:26;18.10;63.10
13928;DHT22;7036;50.834;4.718;2024-02-15T04:23:54;18.10;63.20
13928;DHT22;7036;50.834;4.718;2024-02-15T04:26:21;18.10;63.00
13928;DHT22;7036;50.834;4.718;2024-02-15T04:28:48;18.10;63.00
13928;DHT22;7036;50.834;4.718;2024-02-15T04:31:15;18.10;63.00
13928;DHT22;7036;50.834;4.718;2024-02-15T04:33:43;18.10;63.00
13928;DHT22;7036;50.834;4.718;2024-02-15T04:36:11;18.10;63.20
13928;DHT22;7036;50.834;4.718;2024-02-15T04:38:39;18.10;63.30
13928;DHT22;7036;50.834;4.718;2024-02-15T04:41:07;18.10;63.20
13928;DHT22;7036;50.834;4.718;2024-02-15T04:43:35;18.10;63.10
13928;DHT22;7036;50.834;4.718;2024-02-15T04:46:03;18.10;63.20
13928;DHT22;7036;50.834;4.718;2024-02-15T04:48:30;18.10;63.10
13928;DHT22;7036;50.834;4.718;2024-02-15T04:50:57;18.00;63.00
13928;DHT22;7036;50.834;4.718;2024-02-15T04:53:25;18.10;63.20
13928;DHT22;7036;50.834;4.718;2024-02-15T04:55:53;18.00;62.90
13928;DHT22;7036;50.834;4.718;2024-02-15T04:58:21;18.00;63.10
13928;DHT22;7036;50.834;4.718;2024-02-15T05:00:49;18.00;63.00
13928;DHT22;7036;50.834;4.718;2024-02-15T05:03:16;18.00;62.30
13928;DHT22;7036;50.834;4.718;2024-02-15T05:05:43;18.00;63.10
13928;DHT22;7036;50.834;4.718;2024-02-15T05:08:10;18.00;63.10
13928;DHT22;7036;50.834;4.718;2024-02-15T05:10:38;18.00;63.10
13928;DHT22;7036;50.834;4.718;2024-02-15T05:13:06;18.00;63.10
13928;DHT22;7036;50.834;4.718;2024-02-15T05:15:34;18.00;63.20
13928;DHT22;7036;50.834;4.718;2024-02-15T05:18:02;18.00;63.10
13928;DHT22;7036;50.834;4.718;2024-02-15T05:20:30;18.00;63.20
13928;DHT22;7036;50.834;4.718;2024-02-15T05:22:58;18.00;63.20
13928;DHT22;7036;50.834;4.718;2024-02-15T05:25:26;18.00;63.20
13928;DHT22;7036;50.834;4.718;2024-02-15T05:27:54;18.00;63.10
13928;DHT22;7036;50.834;4.718;2024-02-15T05:30:21;18.00;63.00
13928;DHT22;7036;50.834;4.718;2024-02-15T05:32:49;18.00;63.20
13928;DHT22;7036;50.834;4.718;2024-02-15T05:35:17;18.00;63.20
13928;DHT22;7036;50.834;4.718;2024-02-15T05:37:45;18.00;62.80
13928;DHT22;7036;50.834;4.718;2024-02-15T05:40:13;18.00;63.20
13928;DHT22;7036;50.834;4.718;2024-02-15T05:42:44;18.00;63.20
13928;DHT22;7036;50.834;4.718;2024-02-15T05:47:50;18.00;63.00
13928;DHT22;7036;50.834;4.718;2024-02-15T05:50:18;18.00;63.10
13928;DHT22;7036;50.834;4.718;2024-02-15T05:52:46;18.00;63.50
13928;DHT22;7036;50.834;4.718;2024-02-15T05:55:13;18.00;63.20
13928;DHT22;7036;50.834;4.718;2024-02-15T05:57:41;18.00;63.00
13928;DHT22;7036;50.834;4.718;2024-02-15T06:00:09;18.00;63.20
13928;DHT22;7036;50.834;4.718;2024-02-15T06:02:36;18.00;63.20
13928;DHT22;7036;50.834;4.718;2024-02-15T06:05:03;18.00;63.00
13928;DHT22;7036;50.834;4.718;2024-02-15T06:07:31;18.00;62.70
13928;DHT22;7036;50.834;4.718;2024-02-15T06:09:59;18.00;63.20
13928;DHT22;7036;50.834;4.718;2024-02-15T06:12:27;18.00;63.20
13928;DHT22;7036;50.834;4.718;2024-02-15T06:14:54;17.90;63.00
13928;DHT22;7036;50.834;4.718;2024-02-15T06:17:22;17.90;63.10
13928;DHT22;7036;50.834;4.718;2024-02-15T06:19:50;17.90;63.20
13928;DHT22;7036;50.834;4.718;2024-02-15T06:22:18;17.90;62.70
13928;DHT22;7036;50.834;4.718;2024-02-15T06:24:46;17.90;63.20
13928;DHT22;7036;50.834;4.718;2024-02-15T06:27:14;17.90;63.20
13928;DHT22;7036;50.834;4.718;2024-02-15T06:29:42;17.90;63.80
13928;DHT22;7036;50.834;4.718;2024-02-15T06:32:27;17.90;63.00
13928;DHT22;7036;50.834;4.718;2024-02-15T06:35:14;17.90;63.10
13928;DHT22;7036;50.834;4.718;2024-02-15T06:37:58;17.90;63.20
13928;DHT22;7036;50.834;4.718;2024-02-15T06:40:43;17.90;63.00
13928;DHT22;7036;50.834;4.718;2024-02-15T06:43:10;17.90;63.10
13928;DHT22;7036;50.834;4.718;2024-02-15T06:45:39;17.90;63.20
13928;DHT22;7036;50.834;4.718;2024-02-15T06:48:05;17.90;63.00
13928;DHT22;7036;50.834;4.718;2024-02-15T06:50:34;17.90;63.20
13928;DHT22;7036;50.834;4.718;2024-02-15T06:53:01;17.90;63.00
13928;DHT22;7036;50.834;4.718;2024-02-15T06:55:29;17.90;63.20
13928;DHT22;7036;50.834;4.718;2024-02-15T06:57:56;17.90;63.10
13928;DHT22;7036;50.834;4.718;2024-02-15T07:00:24;17.90;63.20
13928;DHT22;7036;50.834;4.718;2024-02-15T07:02:52;17.90;63.70
13928;DHT22;7036;50.834;4.718;2024-02-15T07:05:20;17.90;63.20
13928;DHT22;7036;50.834;4.718;2024-02-15T07:07:48;17.90;62.70
13928;DHT22;7036;50.834;4.718;2024-02-15T07:10:15;17.90;63.60
13928;DHT22;7036;50.834;4.718;2024-02-15T07:12:45;17.90;63.00
13928;DHT22;7036;50.834;4.718;2024-02-15T07:15:12;17.90;63.10
13928;DHT22;7036;50.834;4.718;2024-02-15T07:17:39;17.90;63.10
13928;DHT22;7036;50.834;4.718;2024-02-15T07:20:07;17.90;63.10
13928;DHT22;7036;50.834;4.718;2024-02-15T07:22:34;17.90;63.10
13928;DHT22;7036;50.834;4.718;2024-02-15T07:25:02;17.90;63.60
13928;DHT22;7036;50.834;4.718;2024-02-15T07:27:30;17.90;63.90
13928;DHT22;7036;50.834;4.718;2024-02-15T07:29:57;17.80;63.10
13928;DHT22;7036;50.834;4.718;2024-02-15T07:32:24;17.90;63.10
13928;DHT22;7036;50.834;4.718;2024-02-15T07:34:52;17.90;63.10
13928;DHT22;7036;50.834;4.718;2024-02-15T07:37:19;17.90;63.10
13928;DHT22;7036;50.834;4.718;2024-02-15T07:39:46;17.90;63.00
13928;DHT22;7036;50.834;4.718;2024-02-15T07:42:13;17.90;62.90
13928;DHT22;7036;50.834;4.718;2024-02-15T07:44:40;18.00;62.80
13928;DHT22;7036;50.834;4.718;2024-02-15T07:47:08;18.10;63.30
13928;DHT22;7036;50.834;4.718;2024-02-15T07:49:36;18.10;63.40
13928;DHT22;7036;50.834;4.718;2024-02-15T07:52:03;18.10;63.30
13928;DHT22;7036;50.834;4.718;2024-02-15T07:54:31;18.20;63.50
13928;DHT22;7036;50.834;4.718;2024-02-15T07:56:59;18.30;63.60
13928;DHT22;7036;50.834;4.718;2024-02-15T07:59:26;18.30;63.60
13928;DHT22;7036;50.834;4.718;2024-02-15T08:01:54;18.40;63.00
13928;DHT22;7036;50.834;4.718;2024-02-15T08:04:22;18.40;63.50
13928;DHT22;7036;50.834;4.718;2024-02-15T08:06:50;18.40;63.60
13928;DHT22;7036;50.834;4.718;2024-02-15T08:09:18;18.40;64.00
13928;DHT22;7036;50.834;4.718;2024-02-15T08:11:46;18.40;63.50
13928;DHT22;7036;50.834;4.718;2024-02-15T08:14:13;18.50;63.70
13928;DHT22;7036;50.834;4.718;2024-02-15T08:16:41;18.50;63.50
13928;DHT22;7036;50.834;4.718;2024-02-15T08:19:08;18.50;63.60
13928;DHT22;7036;50.834;4.718;2024-02-15T08:21:35;18.50;63.60
13928;DHT22;7036;50.834;4.718;2024-02-15T08:24:02;18.50;63.50
13928;DHT22;7036;50.834;4.718;2024-02-15T08:26:30;18.60;63.50
13928;DHT22;7036;50.834;4.718;2024-02-15T08:28:58;18.60;63.70
13928;DHT22;7036;50.834;4.718;2024-02-15T08:31:25;18.60;63.60
13928;DHT22;7036;50.834;4.718;2024-02-15T08:33:53;18.60;63.70
13928;DHT22;7036;50.834;4.718;2024-02-15T08:36:21;18.60;63.60
13928;DHT22;7036;50.834;4.718;2024-02-15T08:38:52;18.60;63.60
13928;DHT22;7036;50.834;4.718;2024-02-15T08:41:19;18.60;63.40
13928;DHT22;7036;50.834;4.718;2024-02-15T08:43:46;18.60;63.50
13928;DHT22;7036;50.834;4.718;2024-02-15T08:46:14;18.60;63.60
13928;DHT22;7036;50.834;4.718;2024-02-15T08:48:42;18.60;63.60
13928;DHT22;7036;50.834;4.718;2024-02-15T08:51:09;18.60;63.40
13928;DHT22;7036;50.834;4.718;2024-02-15T08:53:37;18.60;63.50
13928;DHT22;7036;50.834;4.718;2024-02-15T08:56:05;18.60;63.40
13928;DHT22;7036;50.834;4.718;2024-02-15T08:58:33;18.60;63.40
13928;DHT22;7036;50.834;4.718;2024-02-15T09:00:59;18.60;63.30
13928;DHT22;7036;50.834;4.718;2024-02-15T09:03:27;18.60;63.40
13928;DHT22;7036;50.834;4.718;2024-02-15T09:05:55;18.60;63.50
13928;DHT22;7036;50.834;4.718;2024-02-15T09:08:23;18.60;63.60
13928;DHT22;7036;50.834;4.718;2024-02-15T09:10:51;18.60;63.40
13928;DHT22;7036;50.834;4.718;2024-02-15T09:13:18;18.60;62.80
13928;DHT22;7036;50.834;4.718;2024-02-15T09:15:46;18.60;63.70
13928;DHT22;7036;50.834;4.718;2024-02-15T09:18:14;18.60;63.80
13928;DHT22;7036;50.834;4.718;2024-02-15T09:20:42;18.60;64.00
13928;DHT22;7036;50.834;4.718;2024-02-15T09:23:10;18.60;64.00
13928;DHT22;7036;50.834;4.718;2024-02-15T09:25:43;18.60;63.90
13928;DHT22;7036;50.834;4.718;2024-02-15T09:28:07;18.60;63.00
13928;DHT22;7036;50.834;4.718;2024-02-15T09:30:34;18.60;64.30
13928;DHT22;7036;50.834;4.718;2024-02-15T09:33:01;18.60;63.60
13928;DHT22;7036;50.834;4.718;2024-02-15T09:35:29;18.60;63.70
13928;DHT22;7036;50.834;4.718;2024-02-15T09:37:57;18.50;63.70
13928;DHT22;7036;50.834;4.718;2024-02-15T09:40:25;18.50;63.70
13928;DHT22;7036;50.834;4.718;2024-02-15T09:42:53;18.60;63.70
13928;DHT22;7036;50.834;4.718;2024-02-15T09:45:21;18.50;63.60
13928;DHT22;7036;50.834;4.718;2024-02-15T09:47:48;18.50;63.40
13928;DHT22;7036;50.834;4.718;2024-02-15T09:50:17;18.60;63.60
13928;DHT22;7036;50.834;4.718;2024-02-15T09:52:50;18.50;63.40
13928;DHT22;7036;50.834;4.718;2024-02-15T09:55:17;18.60;63.40
13928;DHT22;7036;50.834;4.718;2024-02-15T09:57:45;18.60;63.40
13928;DHT22;7036;50.834;4.718;2024-02-15T10:00:13;18.50;63.40
13928;DHT22;7036;50.834;4.718;2024-02-15T10:02:41;18.50;63.40
13928;DHT22;7036;50.834;4.718;2024-02-15T10:05:09;18.60;63.50
13928;DHT22;7036;50.834;4.718;2024-02-15T10:07:38;18.60;63.50
13928;DHT22;7036;50.834;4.718;2024-02-15T10:10:14;18.60;63.50
13928;DHT22;7036;50.834;4.718;2024-02-15T10:12:41;18.60;63.30
13928;DHT22;7036;50.834;4.718;2024-02-15T10:15:09;18.60;63.50
13928;DHT22;7036;50.834;4.718;2024-02-15T10:17:37;18.60;63.40
13928;DHT22;7036;50.834;4.718;2024-02-15T10:20:04;18.60;63.30
13928;DHT22;7036;50.834;4.718;2024-02-15T10:22:31;18.60;63.30
13928;DHT22;7036;50.834;4.718;2024-02-15T10:25:12;18.60;63.40
13928;DHT22;7036;50.834;4.718;2024-02-15T10:27:39;18.60;63.30
13928;DHT22;7036;50.834;4.718;2024-02-15T10:30:16;18.60;63.40
13928;DHT22;7036;50.834;4.718;2024-02-15T10:32:43;18.60;63.30
13928;DHT22;7036;50.834;4.718;2024-02-15T10:35:09;18.70;63.30
13928;DHT22;7036;50.834;4.718;2024-02-15T10:37:37;18.60;63.30
13928;DHT22;7036;50.834;4.718;2024-02-15T10:40:06;18.60;63.30
13928;DHT22;7036;50.834;4.718;2024-02-15T10:42:33;18.60;63.30
13928;DHT22;7036;50.834;4.718;2024-02-15T10:45:05;18.60;63.20
13928;DHT22;7036;50.834;4.718;2024-02-15T10:47:32;18.60;63.20
13928;DHT22;7036;50.834;4.718;2024-02-15T10:50:00;18.60;63.30
13928;DHT22;7036;50.834;4.718;2024-02-15T10:52:30;18.60;63.30
13928;DHT22;7036;50.834;4.718;2024-02-15T10:55:05;18.60;63.30
13928;DHT22;7036;50.834;4.718;2024-02-15T10:57:29;18.60;63.10
13928;DHT22;7036;50.834;4.718;2024-02-15T10:59:57;18.60;63.30
13928;DHT22;7036;50.834;4.718;2024-02-15T11:02:28;18.70;63.30
13928;DHT22;7036;50.834;4.718;2024-02-15T11:05:02;18.60;63.10
13928;DHT22;7036;50.834;4.718;2024-02-15T11:07:27;18.70;63.20
13928;DHT22;7036;50.834;4.718;2024-02-15T11:09:55;18.70;63.30
13928;DHT22;7036;50.834;4.718;2024-02-15T11:12:25;18.70;63.30
13928;DHT22;7036;50.834;4.718;2024-02-15T11:14:54;18.60;63.10
13928;DHT22;7036;50.834;4.718;2024-02-15T11:20:07;18.70;63.10
13928;DHT22;7036;50.834;4.718;2024-02-15T11:22:37;18.70;63.20
13928;DHT22;7036;50.834;4.718;2024-02-15T11:25:05;18.70;63.30
13928;DHT22;7036;50.834;4.718;2024-02-15T11:27:35;18.70;63.20
13928;DHT22;7036;50.834;4.718;2024-02-15T11:30:02;18.70;63.30
13928;DHT22;7036;50.834;4.718;2024-02-15T11:35:15;18.70;63.10
13928;DHT22;7036;50.834;4.718;2024-02-15T11:37:51;18.70;63.20
13928;DHT22;7036;50.834;4.718;2024-02-15T11:40:27;18.70;63.20
13928;DHT22;7036;50.834;4.718;2024-02-15T11:42:59;18.70;63.20
13928;DHT22;7036;50.834;4.718;2024-02-15T11:45:28;18.70;63.20
13928;DHT22;7036;50.834;4.718;2024-02-15T11:48:00;18.80;63.20
13928;DHT22;7036;50.834;4.718;2024-02-15T11:50:30;18.80;63.30
13928;DHT22;7036;50.834;4.718;2024-02-15T11:53:01;18.80;63.20
13928;DHT22;7036;50.834;4.718;2024-02-15T11:55:24;18.90;63.20
13928;DHT22;7036;50.834;4.718;2024-02-15T11:57:57;18.90;63.10
13928;DHT22;7036;50.834;4.718;2024-02-15T12:00:36;19.00;63.10
13928;DHT22;7036;50.834;4.718;2024-02-15T12:06:24;19.10;62.90
13928;DHT22;7036;50.834;4.718;2024-02-15T12:09:10;19.10;62.80
13928;DHT22;7036;50.834;4.718;2024-02-15T12:11:58;19.20;62.70
13928;DHT22;7036;50.834;4.718;2024-02-15T12:14:43;19.20;63.30
13928;DHT22;7036;50.834;4.718;2024-02-15T12:20:31;19.30;62.50
13928;DHT22;7036;50.834;4.718;2024-02-15T12:22:59;19.40;62.50
13928;DHT22;7036;50.834;4.718;2024-02-15T12:25:30;19.40;62.40
13928;DHT22;7036;50.834;4.718;2024-02-15T12:27:58;19.40;62.30
13928;DHT22;7036;50.834;4.718;2024-02-15T12:30:43;19.50;62.40
13928;DHT22;7036;50.834;4.718;2024-02-15T12:33:11;19.50;62.40
13928;DHT22;7036;50.834;4.718;2024-02-15T12:35:37;19.50;62.20
13928;DHT22;7036;50.834;4.718;2024-02-15T12:38:05;19.50;62.60
13928;DHT22;7036;50.834;4.718;2024-02-15T12:40:36;19.60;62.50
13928;DHT22;7036;50.834;4.718;2024-02-15T12:43:05;19.60;62.40
13928;DHT22;7036;50.834;4.718;2024-02-15T12:45:31;19.60;62.40
13928;DHT22;7036;50.834;4.718;2024-02-15T12:47:58;19.60;62.30
13928;DHT22;7036;50.834;4.718;2024-02-15T12:50:44;19.70;62.40
13928;DHT22;7036;50.834;4.718;2024-02-15T12:53:12;19.70;62.30
13928;DHT22;7036;50.834;4.718;2024-02-15T12:55:39;19.70;62.10
13928;DHT22;7036;50.834;4.718;2024-02-15T12:58:12;19.70;62.10
13928;DHT22;7036;50.834;4.718;2024-02-15T13:00:35;19.70;61.30
13928;DHT22;7036;50.834;4.718;2024-02-15T13:03:04;19.70;61.80
13928;DHT22;7036;50.834;4.718;2024-02-15T13:05:32;19.80;61.80
13928;DHT22;7036;50.834;4.718;2024-02-15T13:08:00;19.80;62.10
13928;DHT22;7036;50.834;4.718;2024-02-15T13:10:29;19.80;61.70
13928;DHT22;7036;50.834;4.718;2024-02-15T13:12:57;19.80;61.50
13928;DHT22;7036;50.834;4.718;2024-02-15T13:15:25;19.80;61.30
13928;DHT22;7036;50.834;4.718;2024-02-15T13:17:55;19.80;61.10
13928;DHT22;7036;50.834;4.718;2024-02-15T13:20:22;19.80;61.00
13928;DHT22;7036;50.834;4.718;2024-02-15T13:22:55;19.90;61.10
13928;DHT22;7036;50.834;4.718;2024-02-15T13:25:22;19.90;61.00
13928;DHT22;7036;50.834;4.718;2024-02-15T13:27:50;19.90;61.40
13928;DHT22;7036;50.834;4.718;2024-02-15T13:30:18;20.00;61.80
13928;DHT22;7036;50.834;4.718;2024-02-15T13:32:46;20.00;61.90
13928;DHT22;7036;50.834;4.718;2024-02-15T13:35:14;20.00;61.90
13928;DHT22;7036;50.834;4.718;2024-02-15T13:37:47;20.00;61.80
13928;DHT22;7036;50.834;4.718;2024-02-15T13:40:14;20.00;61.80
13928;DHT22;7036;50.834;4.718;2024-02-15T13:42:43;20.10;62.00
13928;DHT22;7036;50.834;4.718;2024-02-15T13:45:11;20.10;62.20
13928;DHT22;7036;50.834;4.718;2024-02-15T13:50:23;20.10;62.00
13928;DHT22;7036;50.834;4.718;2024-02-15T13:52:51;20.10;62.90
13928;DHT22;7036;50.834;4.718;2024-02-15T13:55:19;20.10;62.20
13928;DHT22;7036;50.834;4.718;2024-02-15T13:57:49;20.10;62.00
13928;DHT22;7036;50.834;4.718;2024-02-15T14:00:17;20.00;62.20
13928;DHT22;7036;50.834;4.718;2024-02-15T14:02:53;20.00;62.30
13928;DHT22;7036;50.834;4.718;2024-02-15T14:05:20;20.00;62.10
13928;DHT22;7036;50.834;4.718;2024-02-15T14:07:47;20.00;62.20
13928;DHT22;7036;50.834;4.718;2024-02-15T14:10:15;20.00;63.10
13928;DHT22;7036;50.834;4.718;2024-02-15T14:12:42;20.00;62.30
13928;DHT22;7036;50.834;4.718;2024-02-15T14:15:10;20.00;62.40
13928;DHT22;7036;50.834;4.718;2024-02-15T14:17:57;20.00;62.40
13928;DHT22;7036;50.834;4.718;2024-02-15T14:20:42;19.90;62.20
13928;DHT22;7036;50.834;4.718;2024-02-15T14:23:09;19.90;62.20
13928;DHT22;7036;50.834;4.718;2024-02-15T14:25:37;19.90;62.70
13928;DHT22;7036;50.834;4.718;2024-02-15T14:28:04;19.90;62.30
13928;DHT22;7036;50.834;4.718;2024-02-15T14:30:31;19.90;62.40
13928;DHT22;7036;50.834;4.718;2024-02-15T14:33:16;19.90;62.40
13928;DHT22;7036;50.834;4.718;2024-02-15T14:35:45;19.90;62.70
13928;DHT22;7036;50.834;4.718;2024-02-15T14:38:12;19.90;62.50
13928;DHT22;7036;50.834;4.718;2024-02-15T14:40:56;19.90;62.60
13928;DHT22;7036;50.834;4.718;2024-02-15T14:43:25;19.90;63.40
13928;DHT22;7036;50.834;4.718;2024-02-15T14:45:53;19.90;62.60
13928;DHT22;7036;50.834;4.718;2024-02-15T14:48:20;19.90;63.30
13928;DHT22;7036;50.834;4.718;2024-02-15T14:50:48;19.90;62.60
13928;DHT22;7036;50.834;4.718;2024-02-15T14:53:16;19.90;62.60
13928;DHT22;7036;50.834;4.718;2024-02-15T14:55:43;19.90;62.60
13928;DHT22;7036;50.834;4.718;2024-02-15T14:58:15;19.90;62.50
13928;DHT22;7036;50.834;4.718;2024-02-15T15:00:45;19.90;62.40
13928;DHT22;7036;50.834;4.718;2024-02-15T15:03:12;19.90;62.50
13928;DHT22;7036;50.834;4.718;2024-02-15T15:05:41;19.90;63.30
13928;DHT22;7036;50.834;4.718;2024-02-15T15:08:26;19.90;62.60
13928;DHT22;7036;50.834;4.718;2024-02-15T15:11:12;19.90;62.60
13928;DHT22;7036;50.834;4.718;2024-02-15T15:13:57;19.90;62.40
13928;DHT22;7036;50.834;4.718;2024-02-15T15:16:27;19.80;62.60
13928;DHT22;7036;50.834;4.718;2024-02-15T15:18:54;19.80;62.40
13928;DHT22;7036;50.834;4.718;2024-02-15T15:21:21;19.80;62.40
13928;DHT22;7036;50.834;4.718;2024-02-15T15:23:49;19.80;62.60
13928;DHT22;7036;50.834;4.718;2024-02-15T15:26:21;19.80;62.60
13928;DHT22;7036;50.834;4.718;2024-02-15T15:28:47;19.80;62.50
13928;DHT22;7036;50.834;4.718;2024-02-15T15:31:14;19.80;62.50
13928;DHT22;7036;50.834;4.718;2024-02-15T15:33:43;19.80;62.60
13928;DHT22;7036;50.834;4.718;2024-02-15T15:36:09;19.80;62.50
13928;DHT22;7036;50.834;4.718;2024-02-15T15:38:39;19.80;62.50
13928;DHT22;7036;50.834;4.718;2024-02-15T15:41:07;19.80;62.60
13928;DHT22;7036;50.834;4.718;2024-02-15T15:43:35;19.80;62.60
13928;DHT22;7036;50.834;4.718;2024-02-15T15:46:03;19.80;62.90
13928;DHT22;7036;50.834;4.718;2024-02-15T15:48:30;19.80;62.50
13928;DHT22;7036;50.834;4.718;2024-02-15T15:50:58;19.80;62.60
13928;DHT22;7036;50.834;4.718;2024-02-15T15:53:26;19.80;62.60
13928;DHT22;7036;50.834;4.718;2024-02-15T15:55:55;19.80;62.60
13928;DHT22;7036;50.834;4.718;2024-02-15T15:58:21;19.80;62.40
13928;DHT22;7036;50.834;4.718;2024-02-15T16:00:48;19.80;62.40
13928;DHT22;7036;50.834;4.718;2024-02-15T16:03:16;19.80;62.40
13928;DHT22;7036;50.834;4.718;2024-02-15T16:05:47;19.80;62.50
13928;DHT22;7036;50.834;4.718;2024-02-15T16:08:12;19.70;62.50
13928;DHT22;7036;50.834;4.718;2024-02-15T16:10:40;19.70;62.40
13928;DHT22;7036;50.834;4.718;2024-02-15T16:13:08;19.70;62.40
13928;DHT22;7036;50.834;4.718;2024-02-15T16:15:54;19.70;62.40